sensor_id;sensor_type;location;lat;lon;timestamp;pressure;altitude;pressure_sealevel;temperature;humidity
77431;BME280;66498;48.564;19.272;2023-04-06T00:02:13;97621.88;;;-3.13;64.25
77431;BME280;66498;48.564;19.272;2023-04-06T00:04:40;97618.66;;;-2.86;62.91
77431;BME280;66498;48.564;19.272;2023-04-06T00:07:08;97621.09;;;-2.94;62.54
77431;BME280;66498;48.564;19.272;2023-04-06T00:09:38;97622.06;;;-2.66;61.82
77431;BME280;66498;48.564;19.272;2023-04-06T00:12:03;97612.72;;;-2.96;62.51
77431;BME280;66498;48.564;19.272;2023-04-06T00:14:30;97610.84;;;-2.75;61.86
77431;BME280;66498;48.564;19.272;2023-04-06T00:16:55;97608.38;;;-2.96;62.29
77431;BME280;66498;48.564;19.272;2023-04-06T00:19:21;97609.31;;;-3.06;63.39
77431;BME280;66498;48.564;19.272;2023-04-06T00:21:47;97611.47;;;-3.21;63.81
77431;BME280;66498;48.564;19.272;2023-04-06T00:24:12;97607.66;;;-3.46;64.78
77431;BME280;66498;48.564;19.272;2023-04-06T00:26:38;97607.69;;;-3.67;65.07
77431;BME280;66498;48.564;19.272;2023-04-06T00:29:03;97612.69;;;-4.06;66.53
77431;BME280;66498;48.564;19.272;2023-04-06T00:31:29;97602.88;;;-4.22;66.77
77431;BME280;66498;48.564;19.272;2023-04-06T00:33:55;97604.53;;;-4.11;66.42
77431;BME280;66498;48.564;19.272;2023-04-06T00:36:20;97600.50;;;-3.83;66.26
77431;BME280;66498;48.564;19.272;2023-04-06T00:38:46;97592.88;;;-4.04;67.76
77431;BME280;66498;48.564;19.272;2023-04-06T00:41:12;97603.69;;;-4.21;67.66
77431;BME280;66498;48.564;19.272;2023-04-06T00:43:38;97599.03;;;-4.37;67.84
77431;BME280;66498;48.564;19.272;2023-04-06T00:46:04;97604.72;;;-4.34;67.72
77431;BME280;66498;48.564;19.272;2023-04-06T00:48:31;97601.91;;;-4.31;67.32
77431;BME280;66498;48.564;19.272;2023-04-06T00:50:57;97594.81;;;-4.17;67.12
77431;BME280;66498;48.564;19.272;2023-04-06T00:53:23;97603.78;;;-4.02;66.77
77431;BME280;66498;48.564;19.272;2023-04-06T00:55:49;97601.81;;;-3.89;66.13
77431;BME280;66498;48.564;19.272;2023-04-06T00:58:15;97596.44;;;-3.86;66.08
77431;BME280;66498;48.564;19.272;2023-04-06T01:00:41;97589.94;;;-3.90;66.34
77431;BME280;66498;48.564;19.272;2023-04-06T01:03:07;97594.88;;;-3.67;65.70
77431;BME280;66498;48.564;19.272;2023-04-06T01:05:34;97589.50;;;-3.95;65.94
77431;BME280;66498;48.564;19.272;2023-04-06T01:08:05;97588.31;;;-3.91;65.96
77431;BME280;66498;48.564;19.272;2023-04-06T01:10:32;97587.69;;;-4.14;66.87
77431;BME280;66498;48.564;19.272;2023-04-06T01:12:57;97587.53;;;-4.12;67.14
77431;BME280;66498;48.564;19.272;2023-04-06T01:15:25;97583.03;;;-4.50;67.95
77431;BME280;66498;48.564;19.272;2023-04-06T01:17:52;97580.09;;;-4.15;66.80
77431;BME280;66498;48.564;19.272;2023-04-06T01:20:19;97586.03;;;-4.15;66.45
77431;BME280;66498;48.564;19.272;2023-04-06T01:22:45;97579.16;;;-4.45;67.40
77431;BME280;66498;48.564;19.272;2023-04-06T01:25:10;97580.72;;;-4.54;67.66
77431;BME280;66498;48.564;19.272;2023-04-06T01:27:36;97578.28;;;-4.55;68.15
77431;BME280;66498;48.564;19.272;2023-04-06T01:30:02;97579.16;;;-4.45;67.65
77431;BME280;66498;48.564;19.272;2023-04-06T01:32:28;97578.00;;;-4.52;68.30
77431;BME280;66498;48.564;19.272;2023-04-06T01:34:55;97575.59;;;-4.54;68.18
77431;BME280;66498;48.564;19.272;2023-04-06T01:37:22;97580.72;;;-4.54;67.99
77431;BME280;66498;48.564;19.272;2023-04-06T01:39:47;97582.88;;;-4.49;67.95
77431;BME280;66498;48.564;19.272;2023-04-06T01:42:13;97572.22;;;-4.54;67.70
77431;BME280;66498;48.564;19.272;2023-04-06T01:44:38;97574.16;;;-4.46;67.89
77431;BME280;66498;48.564;19.272;2023-04-06T01:47:04;97574.28;;;-4.48;67.93
77431;BME280;66498;48.564;19.272;2023-04-06T01:49:29;97580.69;;;-4.33;68.17
77431;BME280;66498;48.564;19.272;2023-04-06T01:51:55;97571.56;;;-4.25;67.88
77431;BME280;66498;48.564;19.272;2023-04-06T01:54:20;97573.38;;;-4.16;67.68
77431;BME280;66498;48.564;19.272;2023-04-06T01:56:46;97571.88;;;-4.19;68.02
77431;BME280;66498;48.564;19.272;2023-04-06T01:59:12;97568.59;;;-4.31;68.75
77431;BME280;66498;48.564;19.272;2023-04-06T02:01:37;97568.09;;;-4.15;68.74
77431;BME280;66498;48.564;19.272;2023-04-06T02:04:03;97567.28;;;-4.15;68.49
77431;BME280;66498;48.564;19.272;2023-04-06T02:06:29;97560.25;;;-4.23;68.33
77431;BME280;66498;48.564;19.272;2023-04-06T02:08:55;97561.88;;;-4.22;68.49
77431;BME280;66498;48.564;19.272;2023-04-06T02:11:20;97557.81;;;-4.24;68.46
77431;BME280;66498;48.564;19.272;2023-04-06T02:13:47;97547.81;;;-4.48;68.74
77431;BME280;66498;48.564;19.272;2023-04-06T02:16:13;97554.06;;;-4.20;67.75
77431;BME280;66498;48.564;19.272;2023-04-06T02:18:40;97548.19;;;-4.32;67.59
77431;BME280;66498;48.564;19.272;2023-04-06T02:21:05;97541.53;;;-4.44;68.07
77431;BME280;66498;48.564;19.272;2023-04-06T02:23:31;97543.41;;;-4.46;67.86
77431;BME280;66498;48.564;19.272;2023-04-06T02:25:56;97537.81;;;-4.31;66.75
77431;BME280;66498;48.564;19.272;2023-04-06T02:28:22;97534.53;;;-4.63;67.93
77431;BME280;66498;48.564;19.272;2023-04-06T02:30:47;97534.03;;;-4.57;67.53
77431;BME280;66498;48.564;19.272;2023-04-06T02:33:13;97531.88;;;-4.62;67.87
77431;BME280;66498;48.564;19.272;2023-04-06T02:35:38;97525.59;;;-4.69;67.80
77431;BME280;66498;48.564;19.272;2023-04-06T02:38:08;97520.56;;;-4.80;68.57
77431;BME280;66498;48.564;19.272;2023-04-06T02:40:34;97531.34;;;-4.77;67.94
77431;BME280;66498;48.564;19.272;2023-04-06T02:42:59;97531.53;;;-4.89;68.46
77431;BME280;66498;48.564;19.272;2023-04-06T02:45:26;97529.09;;;-4.70;68.12
77431;BME280;66498;48.564;19.272;2023-04-06T02:47:52;97528.06;;;-4.67;68.58
77431;BME280;66498;48.564;19.272;2023-04-06T02:50:18;97530.66;;;-5.00;69.36
77431;BME280;66498;48.564;19.272;2023-04-06T02:52:43;97526.16;;;-5.07;69.84
77431;BME280;66498;48.564;19.272;2023-04-06T02:55:09;97529.47;;;-5.49;70.75
77431;BME280;66498;48.564;19.272;2023-04-06T02:57:34;97532.16;;;-5.50;71.28
77431;BME280;66498;48.564;19.272;2023-04-06T03:00:00;97533.13;;;-5.30;70.66
77431;BME280;66498;48.564;19.272;2023-04-06T03:02:26;97529.72;;;-5.19;69.91
77431;BME280;66498;48.564;19.272;2023-04-06T03:04:51;97524.53;;;-5.08;69.94
77431;BME280;66498;48.564;19.272;2023-04-06T03:07:16;97518.72;;;-4.89;69.73
77431;BME280;66498;48.564;19.272;2023-04-06T03:09:42;97520.38;;;-4.88;69.68
77431;BME280;66498;48.564;19.272;2023-04-06T03:12:07;97530.41;;;-4.96;70.32
77431;BME280;66498;48.564;19.272;2023-04-06T03:14:33;97519.19;;;-4.84;69.69
77431;BME280;66498;48.564;19.272;2023-04-06T03:16:58;97522.53;;;-4.63;68.27
77431;BME280;66498;48.564;19.272;2023-04-06T03:19:24;97516.59;;;-4.63;68.00
77431;BME280;66498;48.564;19.272;2023-04-06T03:21:50;97515.91;;;-4.65;68.55
77431;BME280;66498;48.564;19.272;2023-04-06T03:24:15;97515.31;;;-4.79;68.52
77431;BME280;66498;48.564;19.272;2023-04-06T03:26:41;97517.09;;;-5.11;70.74
77431;BME280;66498;48.564;19.272;2023-04-06T03:29:06;97516.84;;;-5.29;71.69
77431;BME280;66498;48.564;19.272;2023-04-06T03:31:32;97518.69;;;-5.63;70.82
77431;BME280;66498;48.564;19.272;2023-04-06T03:33:57;97514.53;;;-5.43;70.17
77431;BME280;66498;48.564;19.272;2023-04-06T03:36:24;97522.16;;;-5.53;71.51
77431;BME280;66498;48.564;19.272;2023-04-06T03:38:50;97519.38;;;-5.50;70.82
77431;BME280;66498;48.564;19.272;2023-04-06T03:41:16;97518.47;;;-5.60;71.58
77431;BME280;66498;48.564;19.272;2023-04-06T03:43:41;97515.25;;;-5.41;71.04
77431;BME280;66498;48.564;19.272;2023-04-06T03:46:07;97507.75;;;-5.33;70.47
77431;BME280;66498;48.564;19.272;2023-04-06T03:48:32;97508.22;;;-5.60;70.95
77431;BME280;66498;48.564;19.272;2023-04-06T03:50:58;97510.28;;;-5.43;70.44
77431;BME280;66498;48.564;19.272;2023-04-06T03:53:23;97513.50;;;-4.88;68.24
77431;BME280;66498;48.564;19.272;2023-04-06T03:55:48;97517.53;;;-5.06;68.97
77431;BME280;66498;48.564;19.272;2023-04-06T03:58:14;97507.25;;;-4.95;68.60
77431;BME280;66498;48.564;19.272;2023-04-06T04:00:39;97499.13;;;-4.79;67.96
77431;BME280;66498;48.564;19.272;2023-04-06T04:03:05;97506.31;;;-5.15;69.38
77431;BME280;66498;48.564;19.272;2023-04-06T04:05:31;97505.69;;;-5.07;68.58
77431;BME280;66498;48.564;19.272;2023-04-06T04:07:56;97506.81;;;-5.00;68.90
77431;BME280;66498;48.564;19.272;2023-04-06T04:10:22;97498.94;;;-4.87;68.00
77431;BME280;66498;48.564;19.272;2023-04-06T04:12:47;97497.81;;;-4.94;67.95
77431;BME280;66498;48.564;19.272;2023-04-06T04:15:13;97498.00;;;-4.86;67.54
77431;BME280;66498;48.564;19.272;2023-04-06T04:17:38;97499.06;;;-5.10;68.48
77431;BME280;66498;48.564;19.272;2023-04-06T04:20:04;97497.09;;;-4.85;68.14
77431;BME280;66498;48.564;19.272;2023-04-06T04:22:30;97491.94;;;-5.06;68.77
77431;BME280;66498;48.564;19.272;2023-04-06T04:24:55;97491.41;;;-5.42;70.49
77431;BME280;66498;48.564;19.272;2023-04-06T04:27:21;97499.78;;;-5.40;71.22
77431;BME280;66498;48.564;19.272;2023-04-06T04:29:47;97507.09;;;-5.35;70.99
77431;BME280;66498;48.564;19.272;2023-04-06T04:32:12;97499.53;;;-5.37;70.66
77431;BME280;66498;48.564;19.272;2023-04-06T04:34:38;97496.53;;;-5.42;70.98
77431;BME280;66498;48.564;19.272;2023-04-06T04:37:06;97501.09;;;-5.45;71.19
77431;BME280;66498;48.564;19.272;2023-04-06T04:39:32;97492.88;;;-5.28;70.65
77431;BME280;66498;48.564;19.272;2023-04-06T04:41:57;97491.28;;;-5.08;70.02
77431;BME280;66498;48.564;19.272;2023-04-06T04:44:23;97489.50;;;-4.87;69.27
77431;BME280;66498;48.564;19.272;2023-04-06T04:46:48;97494.63;;;-4.87;69.43
77431;BME280;66498;48.564;19.272;2023-04-06T04:49:14;97490.03;;;-4.72;69.12
77431;BME280;66498;48.564;19.272;2023-04-06T04:51:40;97483.13;;;-4.50;67.77
77431;BME280;66498;48.564;19.272;2023-04-06T04:54:05;97490.59;;;-4.38;66.47
77431;BME280;66498;48.564;19.272;2023-04-06T04:56:31;97483.97;;;-4.40;66.32
77431;BME280;66498;48.564;19.272;2023-04-06T04:58:56;97490.38;;;-5.18;70.04
77431;BME280;66498;48.564;19.272;2023-04-06T05:01:22;97481.41;;;-5.13;70.11
77431;BME280;66498;48.564;19.272;2023-04-06T05:03:47;97482.00;;;-5.00;69.58
77431;BME280;66498;48.564;19.272;2023-04-06T05:06:13;97484.06;;;-4.72;69.40
77431;BME280;66498;48.564;19.272;2023-04-06T05:08:38;97477.38;;;-4.64;68.67
77431;BME280;66498;48.564;19.272;2023-04-06T05:11:04;97476.91;;;-5.20;70.04
77431;BME280;66498;48.564;19.272;2023-04-06T05:13:30;97476.00;;;-5.31;70.63
77431;BME280;66498;48.564;19.272;2023-04-06T05:15:56;97476.28;;;-4.40;67.89
77431;BME280;66498;48.564;19.272;2023-04-06T05:18:21;97455.97;;;-4.22;66.71
77431;BME280;66498;48.564;19.272;2023-04-06T05:20:47;97466.06;;;-4.31;67.96
77431;BME280;66498;48.564;19.272;2023-04-06T05:23:12;97458.31;;;-4.00;66.79
77431;BME280;66498;48.564;19.272;2023-04-06T05:25:38;97456.69;;;-4.11;67.53
77431;BME280;66498;48.564;19.272;2023-04-06T05:28:04;97448.09;;;-3.90;67.08
77431;BME280;66498;48.564;19.272;2023-04-06T05:30:29;97440.91;;;-4.06;67.49
77431;BME280;66498;48.564;19.272;2023-04-06T05:32:55;97448.91;;;-3.80;66.83
77431;BME280;66498;48.564;19.272;2023-04-06T05:35:20;97453.09;;;-3.79;66.26
77431;BME280;66498;48.564;19.272;2023-04-06T05:37:46;97442.31;;;-3.34;64.23
77431;BME280;66498;48.564;19.272;2023-04-06T05:40:12;97445.81;;;-3.35;64.00
77431;BME280;66498;48.564;19.272;2023-04-06T05:42:41;97446.38;;;-3.31;64.53
77431;BME280;66498;48.564;19.272;2023-04-06T05:45:08;97440.78;;;-3.07;64.17
77431;BME280;66498;48.564;19.272;2023-04-06T05:47:34;97432.66;;;-3.03;64.28
77431;BME280;66498;48.564;19.272;2023-04-06T05:50:00;97440.38;;;-3.13;65.43
77431;BME280;66498;48.564;19.272;2023-04-06T05:52:25;97435.34;;;-2.85;64.23
77431;BME280;66498;48.564;19.272;2023-04-06T05:54:52;97431.91;;;-2.66;64.13
77431;BME280;66498;48.564;19.272;2023-04-06T05:57:17;97425.16;;;-2.67;63.92
77431;BME280;66498;48.564;19.272;2023-04-06T05:59:43;97420.03;;;-2.40;63.10
77431;BME280;66498;48.564;19.272;2023-04-06T06:02:09;97418.13;;;-1.92;61.14
77431;BME280;66498;48.564;19.272;2023-04-06T06:04:34;97418.69;;;-2.16;62.16
77431;BME280;66498;48.564;19.272;2023-04-06T06:07:00;97409.63;;;-1.93;61.59
77431;BME280;66498;48.564;19.272;2023-04-06T06:09:26;97413.97;;;-1.93;61.83
77431;BME280;66498;48.564;19.272;2023-04-06T06:11:51;97412.84;;;-1.55;60.91
77431;BME280;66498;48.564;19.272;2023-04-06T06:14:17;97411.50;;;-1.23;58.63
77431;BME280;66498;48.564;19.272;2023-04-06T06:16:43;97402.84;;;-1.40;60.16
77431;BME280;66498;48.564;19.272;2023-04-06T06:19:08;97407.56;;;-0.83;58.05
77431;BME280;66498;48.564;19.272;2023-04-06T06:21:34;97402.47;;;-1.01;59.65
77431;BME280;66498;48.564;19.272;2023-04-06T06:23:59;97408.63;;;-1.20;59.33
77431;BME280;66498;48.564;19.272;2023-04-06T06:26:25;97401.53;;;-0.66;58.72
77431;BME280;66498;48.564;19.272;2023-04-06T06:28:51;97399.25;;;-0.77;57.86
77431;BME280;66498;48.564;19.272;2023-04-06T06:31:16;97401.25;;;-0.20;56.53
77431;BME280;66498;48.564;19.272;2023-04-06T06:33:43;97393.19;;;-0.26;55.60
77431;BME280;66498;48.564;19.272;2023-04-06T06:36:09;97398.34;;;-0.26;54.62
77431;BME280;66498;48.564;19.272;2023-04-06T06:38:35;97404.22;;;0.01;55.16
77431;BME280;66498;48.564;19.272;2023-04-06T06:41:00;97392.34;;;0.33;54.09
77431;BME280;66498;48.564;19.272;2023-04-06T06:43:25;97390.84;;;0.06;57.49
77431;BME280;66498;48.564;19.272;2023-04-06T06:45:51;97398.97;;;0.52;56.19
77431;BME280;66498;48.564;19.272;2023-04-06T06:48:17;97391.03;;;0.29;56.21
77431;BME280;66498;48.564;19.272;2023-04-06T06:50:42;97397.00;;;0.21;56.21
77431;BME280;66498;48.564;19.272;2023-04-06T06:53:08;97398.94;;;0.43;55.91
77431;BME280;66498;48.564;19.272;2023-04-06T06:55:33;97396.06;;;0.79;55.33
77431;BME280;66498;48.564;19.272;2023-04-06T06:57:59;97386.97;;;1.16;54.25
77431;BME280;66498;48.564;19.272;2023-04-06T07:00:25;97393.13;;;0.99;53.29
77431;BME280;66498;48.564;19.272;2023-04-06T07:02:50;97385.97;;;1.17;54.44
77431;BME280;66498;48.564;19.272;2023-04-06T07:05:17;97393.91;;;1.63;52.73
77431;BME280;66498;48.564;19.272;2023-04-06T07:07:43;97389.13;;;1.83;51.03
77431;BME280;66498;48.564;19.272;2023-04-06T07:10:08;97390.38;;;1.56;50.78
77431;BME280;66498;48.564;19.272;2023-04-06T07:12:34;97387.72;;;1.33;50.97
77431;BME280;66498;48.564;19.272;2023-04-06T07:15:00;97394.22;;;1.21;52.23
77431;BME280;66498;48.564;19.272;2023-04-06T07:17:26;97390.50;;;1.15;50.53
77431;BME280;66498;48.564;19.272;2023-04-06T07:19:51;97392.06;;;1.40;50.35
77431;BME280;66498;48.564;19.272;2023-04-06T07:22:17;97384.47;;;1.78;49.87
77431;BME280;66498;48.564;19.272;2023-04-06T07:24:43;97386.28;;;1.70;50.76
77431;BME280;66498;48.564;19.272;2023-04-06T07:27:08;97394.50;;;1.34;52.31
77431;BME280;66498;48.564;19.272;2023-04-06T07:29:34;97388.81;;;1.47;52.71
77431;BME280;66498;48.564;19.272;2023-04-06T07:32:00;97391.91;;;1.81;53.01
77431;BME280;66498;48.564;19.272;2023-04-06T07:34:26;97386.72;;;2.12;52.29
77431;BME280;66498;48.564;19.272;2023-04-06T07:36:51;97384.06;;;1.98;52.56
77431;BME280;66498;48.564;19.272;2023-04-06T07:39:19;97382.41;;;2.51;50.56
77431;BME280;66498;48.564;19.272;2023-04-06T07:41:45;97382.13;;;2.23;51.43
77431;BME280;66498;48.564;19.272;2023-04-06T07:44:10;97379.28;;;2.09;51.57
77431;BME280;66498;48.564;19.272;2023-04-06T07:46:36;97382.75;;;2.25;51.36
77431;BME280;66498;48.564;19.272;2023-04-06T07:49:01;97380.16;;;2.48;51.71
77431;BME280;66498;48.564;19.272;2023-04-06T07:51:27;97374.28;;;2.54;50.60
77431;BME280;66498;48.564;19.272;2023-04-06T07:53:53;97379.81;;;2.89;50.08
77431;BME280;66498;48.564;19.272;2023-04-06T07:56:19;97371.16;;;2.96;48.79
77431;BME280;66498;48.564;19.272;2023-04-06T07:58:46;97364.66;;;3.00;46.69
77431;BME280;66498;48.564;19.272;2023-04-06T08:01:11;97369.63;;;3.02;45.82
77431;BME280;66498;48.564;19.272;2023-04-06T08:03:37;97367.38;;;2.84;45.38
77431;BME280;66498;48.564;19.272;2023-04-06T08:06:03;97366.25;;;3.01;45.68
77431;BME280;66498;48.564;19.272;2023-04-06T08:08:29;97362.84;;;3.16;44.99
77431;BME280;66498;48.564;19.272;2023-04-06T08:10:54;97362.69;;;3.02;45.07
77431;BME280;66498;48.564;19.272;2023-04-06T08:13:20;97366.69;;;3.05;45.62
77431;BME280;66498;48.564;19.272;2023-04-06T08:15:46;97359.03;;;3.26;44.05
77431;BME280;66498;48.564;19.272;2023-04-06T08:18:12;97370.84;;;3.44;45.44
77431;BME280;66498;48.564;19.272;2023-04-06T08:20:38;97363.38;;;3.55;43.49
77431;BME280;66498;48.564;19.272;2023-04-06T08:23:04;97362.84;;;3.45;44.92
77431;BME280;66498;48.564;19.272;2023-04-06T08:25:30;97359.09;;;3.48;44.56
77431;BME280;66498;48.564;19.272;2023-04-06T08:27:56;97360.59;;;3.72;42.87
77431;BME280;66498;48.564;19.272;2023-04-06T08:30:21;97359.44;;;3.60;42.48
77431;BME280;66498;48.564;19.272;2023-04-06T08:32:47;97350.06;;;3.95;43.81
77431;BME280;66498;48.564;19.272;2023-04-06T08:35:13;97354.63;;;4.08;42.55
77431;BME280;66498;48.564;19.272;2023-04-06T08:37:39;97353.69;;;4.15;41.80
77431;BME280;66498;48.564;19.272;2023-04-06T08:40:05;97343.97;;;4.02;41.91
77431;BME280;66498;48.564;19.272;2023-04-06T08:42:39;97352.84;;;3.93;41.94
77431;BME280;66498;48.564;19.272;2023-04-06T08:45:06;97343.66;;;4.34;40.26
77431;BME280;66498;48.564;19.272;2023-04-06T08:47:32;97347.97;;;4.48;42.05
77431;BME280;66498;48.564;19.272;2023-04-06T08:50:05;97345.53;;;4.18;42.07
77431;BME280;66498;48.564;19.272;2023-04-06T08:52:32;97348.88;;;4.62;40.82
77431;BME280;66498;48.564;19.272;2023-04-06T08:54:59;97356.63;;;4.55;41.84
77431;BME280;66498;48.564;19.272;2023-04-06T08:57:25;97350.47;;;4.56;41.68
77431;BME280;66498;48.564;19.272;2023-04-06T08:59:52;97353.88;;;4.57;40.42
77431;BME280;66498;48.564;19.272;2023-04-06T09:02:20;97360.31;;;4.89;40.42
77431;BME280;66498;48.564;19.272;2023-04-06T09:04:48;97348.13;;;5.24;39.91
77431;BME280;66498;48.564;19.272;2023-04-06T09:07:15;97343.81;;;5.38;37.81
77431;BME280;66498;48.564;19.272;2023-04-06T09:09:41;97341.09;;;5.59;37.60
77431;BME280;66498;48.564;19.272;2023-04-06T09:12:26;97340.66;;;5.49;39.06
77431;BME280;66498;48.564;19.272;2023-04-06T09:14:52;97340.66;;;5.49;37.79
77431;BME280;66498;48.564;19.272;2023-04-06T09:17:27;97334.53;;;5.77;37.05
77431;BME280;66498;48.564;19.272;2023-04-06T09:19:54;97336.03;;;5.92;37.75
77431;BME280;66498;48.564;19.272;2023-04-06T09:22:20;97335.50;;;5.62;37.81
77431;BME280;66498;48.564;19.272;2023-04-06T09:24:47;97329.50;;;5.62;38.42
77431;BME280;66498;48.564;19.272;2023-04-06T09:27:14;97322.88;;;5.66;34.66
77431;BME280;66498;48.564;19.272;2023-04-06T09:29:41;97326.19;;;5.40;36.88
77431;BME280;66498;48.564;19.272;2023-04-06T09:32:08;97327.50;;;5.70;36.46
77431;BME280;66498;48.564;19.272;2023-04-06T09:34:39;97323.38;;;5.89;35.49
77431;BME280;66498;48.564;19.272;2023-04-06T09:37:18;97321.78;;;5.88;36.04
77431;BME280;66498;48.564;19.272;2023-04-06T09:39:45;97319.16;;;5.82;36.76
77431;BME280;66498;48.564;19.272;2023-04-06T09:42:26;97305.25;;;5.61;37.20
77431;BME280;66498;48.564;19.272;2023-04-06T09:44:52;97314.06;;;5.67;35.46
77431;BME280;66498;48.564;19.272;2023-04-06T09:47:17;97311.44;;;5.12;36.17
77431;BME280;66498;48.564;19.272;2023-04-06T09:49:45;97309.53;;;4.93;36.28
77431;BME280;66498;48.564;19.272;2023-04-06T09:52:13;97307.84;;;5.13;37.76
77431;BME280;66498;48.564;19.272;2023-04-06T09:54:40;97311.00;;;5.09;36.47
77431;BME280;66498;48.564;19.272;2023-04-06T09:57:26;97311.94;;;5.36;35.63
77431;BME280;66498;48.564;19.272;2023-04-06T10:00:07;97309.00;;;5.45;35.23
77431;BME280;66498;48.564;19.272;2023-04-06T10:07:51;97300.13;;;5.88;35.76
77431;BME280;66498;48.564;19.272;2023-04-06T10:10:19;97294.69;;;5.76;34.89
77431;BME280;66498;48.564;19.272;2023-04-06T10:12:45;97291.00;;;6.32;35.57
77431;BME280;66498;48.564;19.272;2023-04-06T10:15:12;97290.78;;;6.73;35.59
77431;BME280;66498;48.564;19.272;2023-04-06T10:17:38;97288.56;;;6.04;37.41
77431;BME280;66498;48.564;19.272;2023-04-06T10:20:09;97291.94;;;5.91;34.99
77431;BME280;66498;48.564;19.272;2023-04-06T10:22:41;97287.63;;;5.70;35.11
77431;BME280;66498;48.564;19.272;2023-04-06T10:25:08;97283.06;;;5.79;35.39
77431;BME280;66498;48.564;19.272;2023-04-06T10:27:34;97280.13;;;5.95;35.06
77431;BME280;66498;48.564;19.272;2023-04-06T10:30:04;97278.19;;;5.56;36.13
77431;BME280;66498;48.564;19.272;2023-04-06T10:32:37;97276.22;;;5.64;35.44
77431;BME280;66498;48.564;19.272;2023-04-06T10:37:46;97264.13;;;5.50;36.38
77431;BME280;66498;48.564;19.272;2023-04-06T10:40:23;97267.22;;;5.74;37.45
77431;BME280;66498;48.564;19.272;2023-04-06T10:42:52;97268.47;;;5.23;37.17
77431;BME280;66498;48.564;19.272;2023-04-06T10:45:25;97271.75;;;5.45;38.39
77431;BME280;66498;48.564;19.272;2023-04-06T10:47:55;97268.25;;;5.25;36.35
77431;BME280;66498;48.564;19.272;2023-04-06T10:50:21;97260.69;;;5.36;37.96
77431;BME280;66498;48.564;19.272;2023-04-06T10:52:58;97260.84;;;5.21;38.01
77431;BME280;66498;48.564;19.272;2023-04-06T10:55:26;97258.59;;;5.12;38.33
77431;BME280;66498;48.564;19.272;2023-04-06T10:57:52;97255.41;;;5.10;38.02
77431;BME280;66498;48.564;19.272;2023-04-06T11:00:18;97259.97;;;5.08;39.11
77431;BME280;66498;48.564;19.272;2023-04-06T11:02:44;97252.81;;;5.16;38.94
77431;BME280;66498;48.564;19.272;2023-04-06T11:05:11;97250.13;;;4.96;38.87
77431;BME280;66498;48.564;19.272;2023-04-06T11:07:39;97259.28;;;4.92;39.32
77431;BME280;66498;48.564;19.272;2023-04-06T11:10:06;97253.38;;;5.12;40.51
77431;BME280;66498;48.564;19.272;2023-04-06T11:12:32;97252.75;;;5.03;39.37
77431;BME280;66498;48.564;19.272;2023-04-06T11:15:01;97245.69;;;4.90;40.44
77431;BME280;66498;48.564;19.272;2023-04-06T11:17:35;97257.88;;;4.90;40.86
77431;BME280;66498;48.564;19.272;2023-04-06T11:20:09;97263.66;;;4.85;42.22
77431;BME280;66498;48.564;19.272;2023-04-06T11:22:35;97262.31;;;4.96;41.75
77431;BME280;66498;48.564;19.272;2023-04-06T11:25:07;97261.94;;;5.06;43.65
77431;BME280;66498;48.564;19.272;2023-04-06T11:27:34;97269.38;;;5.09;43.74
77431;BME280;66498;48.564;19.272;2023-04-06T11:30:01;97267.53;;;4.68;43.26
77431;BME280;66498;48.564;19.272;2023-04-06T11:32:27;97250.88;;;4.56;44.79
77431;BME280;66498;48.564;19.272;2023-04-06T11:34:53;97271.72;;;4.62;45.72
77431;BME280;66498;48.564;19.272;2023-04-06T11:37:19;97260.28;;;4.29;46.03
77431;BME280;66498;48.564;19.272;2023-04-06T11:42:26;97253.31;;;4.36;46.49
77431;BME280;66498;48.564;19.272;2023-04-06T11:44:54;97259.03;;;4.24;48.10
77431;BME280;66498;48.564;19.272;2023-04-06T11:47:20;97261.66;;;4.31;47.17
77431;BME280;66498;48.564;19.272;2023-04-06T11:49:52;97242.03;;;4.00;47.64
77431;BME280;66498;48.564;19.272;2023-04-06T11:52:23;97255.53;;;3.68;49.77
77431;BME280;66498;48.564;19.272;2023-04-06T11:54:51;97262.66;;;3.81;51.13
77431;BME280;66498;48.564;19.272;2023-04-06T11:57:19;97260.13;;;3.51;51.87
77431;BME280;66498;48.564;19.272;2023-04-06T11:59:45;97267.28;;;3.49;51.75
77431;BME280;66498;48.564;19.272;2023-04-06T12:02:11;97270.00;;;3.41;51.70
77431;BME280;66498;48.564;19.272;2023-04-06T12:04:37;97270.47;;;3.15;53.63
77431;BME280;66498;48.564;19.272;2023-04-06T12:07:03;97264.25;;;3.45;54.35
77431;BME280;66498;48.564;19.272;2023-04-06T12:09:30;97276.84;;;2.82;55.90
77431;BME280;66498;48.564;19.272;2023-04-06T12:11:56;97276.09;;;2.89;55.65
77431;BME280;66498;48.564;19.272;2023-04-06T12:14:22;97262.69;;;2.70;57.40
77431;BME280;66498;48.564;19.272;2023-04-06T12:16:47;97271.78;;;2.51;60.59
77431;BME280;66498;48.564;19.272;2023-04-06T12:19:13;97284.84;;;2.58;60.89
77431;BME280;66498;48.564;19.272;2023-04-06T12:21:39;97287.66;;;2.33;61.64
77431;BME280;66498;48.564;19.272;2023-04-06T12:24:06;97273.34;;;2.23;62.62
77431;BME280;66498;48.564;19.272;2023-04-06T12:26:32;97292.22;;;2.08;65.37
77431;BME280;66498;48.564;19.272;2023-04-06T12:29:01;97295.63;;;2.09;65.00
77431;BME280;66498;48.564;19.272;2023-04-06T12:31:32;97274.69;;;1.96;67.57
77431;BME280;66498;48.564;19.272;2023-04-06T12:33:58;97292.72;;;1.58;70.91
77431;BME280;66498;48.564;19.272;2023-04-06T12:36:24;97286.75;;;1.49;73.63
77431;BME280;66498;48.564;19.272;2023-04-06T12:38:50;97306.25;;;1.37;75.16
77431;BME280;66498;48.564;19.272;2023-04-06T12:41:19;97298.22;;;1.24;75.54
77431;BME280;66498;48.564;19.272;2023-04-06T12:43:46;97301.75;;;1.31;76.70
77431;BME280;66498;48.564;19.272;2023-04-06T12:46:12;97298.09;;;1.48;73.63
77431;BME280;66498;48.564;19.272;2023-04-06T12:48:38;97290.03;;;1.74;72.67
77431;BME280;66498;48.564;19.272;2023-04-06T12:51:05;97295.84;;;1.99;69.80
77431;BME280;66498;48.564;19.272;2023-04-06T12:53:32;97287.44;;;2.20;69.49
77431;BME280;66498;48.564;19.272;2023-04-06T12:55:58;97286.63;;;2.20;68.64
77431;BME280;66498;48.564;19.272;2023-04-06T12:58:25;97281.13;;;2.00;70.66
77431;BME280;66498;48.564;19.272;2023-04-06T13:00:55;97281.75;;;2.02;71.50
77431;BME280;66498;48.564;19.272;2023-04-06T13:03:21;97289.88;;;1.99;71.35